DAL240 KBOS-LGAV
Flight info
| Callsign | DAL240 |
|---|---|
| Flight time | N/A |
| Altitude | 37000 |
| Route | CELTK7 CELTK DCT FRILL DCT BRADD N261B NICSO/M080F390 NATW GISTI/N0454F390 DCT AMDEP/M080F390 DCT TAKAS/N0465F390 DCT ALUTA DCT KORER DCT LEMKA DCT BEBIX DCT LERGA DCT TOZOT DCT OTROT DCT RETNO DCT KOLON DCT RAPUR DCT RATAP DCT BTA DCT DOKAR DCT SUNEV DCT LATAN DCT ARA UY144 NEMES |
| Aircraft | A333/H-SDE3GHIJ2J3J5M1RVWXY/LB2D1 |
Departure
| Time | N/A |
|---|---|
| Airport | Boston Logan International Airport (KBOS) |
Arrival
| Time | 2026-05-04 11:47 |
|---|---|
| Airport | Athens Eleftherios Venizelos International Airport (LGAV) |
| Time | Latitude | Longitude | Altitude | Speed | Heading |
|---|---|---|---|---|---|
| 2026-05-04 09:43 | 44.41184 | 5.57319 | 38442 ft | 459 kts | 137° |
| 2026-05-04 09:43 | 44.39074 | 5.60660 | 38683 ft | 459 kts | 135° |
| 2026-05-04 09:43 | 44.37134 | 5.64243 | 38871 ft | 462 kts | 131° |
| 2026-05-04 09:43 | 44.35280 | 5.67909 | 39041 ft | 464 kts | 130° |
| 2026-05-04 09:44 | 44.31636 | 5.75363 | 39091 ft | 465 kts | 129° |
| 2026-05-04 09:46 | 44.17089 | 6.05244 | 39103 ft | 467 kts | 130° |
| 2026-05-04 09:46 | 44.13417 | 6.12713 | 39103 ft | 468 kts | 130° |
| 2026-05-04 09:47 | 44.09726 | 6.20200 | 39106 ft | 469 kts | 130° |
| 2026-05-04 09:49 | 43.94874 | 6.50151 | 39120 ft | 472 kts | 130° |
| 2026-05-04 09:51 | 43.82357 | 6.75158 | 39103 ft | 474 kts | 130° |
| 2026-05-04 09:51 | 43.78584 | 6.82653 | 39114 ft | 475 kts | 130° |
| 2026-05-04 09:52 | 43.74797 | 6.90156 | 39103 ft | 476 kts | 130° |
| 2026-05-04 09:52 | 43.71062 | 6.97634 | 39104 ft | 477 kts | 128° |
| 2026-05-04 09:53 | 43.67439 | 7.05329 | 39098 ft | 478 kts | 127° |
| 2026-05-04 09:53 | 43.63855 | 7.13058 | 39102 ft | 477 kts | 127° |
| 2026-05-04 09:54 | 43.60262 | 7.20751 | 39090 ft | 477 kts | 128° |
| 2026-05-04 09:54 | 43.56645 | 7.28432 | 39095 ft | 479 kts | 128° |
| 2026-05-04 09:55 | 43.53004 | 7.36131 | 39101 ft | 479 kts | 128° |
| 2026-05-04 09:55 | 43.49357 | 7.43823 | 39088 ft | 479 kts | 128° |
| 2026-05-04 09:56 | 43.45707 | 7.51504 | 39084 ft | 479 kts | 128° |
| 2026-05-04 09:56 | 43.42052 | 7.59175 | 39076 ft | 480 kts | 128° |
| 2026-05-04 09:57 | 43.38388 | 7.66845 | 39086 ft | 480 kts | 128° |
| 2026-05-04 09:57 | 43.34715 | 7.74514 | 39087 ft | 481 kts | 128° |
| 2026-05-04 09:58 | 43.31025 | 7.82197 | 39089 ft | 482 kts | 128° |
| 2026-05-04 09:58 | 43.27327 | 7.89880 | 39089 ft | 482 kts | 128° |
| 2026-05-04 10:00 | 43.12474 | 8.20529 | 39085 ft | 483 kts | 128° |
| 2026-05-04 10:04 | 42.86590 | 8.74533 | 39081 ft | 491 kts | 122° |
| 2026-05-04 10:04 | 42.83325 | 8.82725 | 39079 ft | 492 kts | 122° |
| 2026-05-04 10:05 | 42.80080 | 8.90926 | 39079 ft | 492 kts | 122° |
| 2026-05-04 10:05 | 42.76821 | 8.99122 | 39081 ft | 492 kts | 122° |
| 2026-05-04 10:06 | 42.73548 | 9.07306 | 39081 ft | 492 kts | 122° |
| 2026-05-04 10:06 | 42.70272 | 9.15470 | 39088 ft | 492 kts | 122° |
| 2026-05-04 10:08 | 42.58744 | 9.44032 | 39129 ft | 495 kts | 122° |
| 2026-05-04 10:08 | 42.56000 | 9.52617 | 39129 ft | 497 kts | 112° |
| 2026-05-04 10:09 | 42.53622 | 9.61419 | 39129 ft | 497 kts | 111° |
| 2026-05-04 10:09 | 42.51306 | 9.70260 | 39130 ft | 497 kts | 111° |
| 2026-05-04 10:10 | 42.49450 | 9.79286 | 39131 ft | 498 kts | 103° |
| 2026-05-04 10:10 | 42.47685 | 9.88353 | 39134 ft | 497 kts | 111° |
| 2026-05-04 10:11 | 42.45269 | 9.97110 | 39135 ft | 496 kts | 113° |
| 2026-05-04 10:11 | 42.42710 | 10.05786 | 39140 ft | 496 kts | 114° |
| 2026-05-04 10:12 | 42.40136 | 10.14382 | 39141 ft | 496 kts | 114° |
| 2026-05-04 10:12 | 42.37543 | 10.23041 | 39142 ft | 496 kts | 114° |
| 2026-05-04 10:13 | 42.34958 | 10.31679 | 39146 ft | 495 kts | 114° |
| 2026-05-04 10:13 | 42.32369 | 10.40313 | 39146 ft | 495 kts | 114° |
| 2026-05-04 10:14 | 42.29774 | 10.48937 | 39151 ft | 495 kts | 114° |
| 2026-05-04 10:16 | 42.19349 | 10.83293 | 39156 ft | 494 kts | 114° |
| 2026-05-04 10:16 | 42.16730 | 10.91852 | 39159 ft | 494 kts | 114° |
| 2026-05-04 10:17 | 42.14103 | 11.00410 | 39160 ft | 494 kts | 114° |
| 2026-05-04 10:19 | 42.03551 | 11.34506 | 39172 ft | 496 kts | 114° |
| 2026-05-04 10:19 | 42.00888 | 11.43042 | 39167 ft | 495 kts | 114° |
| 2026-05-04 10:20 | 41.98217 | 11.51576 | 39170 ft | 495 kts | 114° |
| 2026-05-04 10:20 | 41.95539 | 11.60103 | 39170 ft | 495 kts | 114° |
| 2026-05-04 10:21 | 41.92858 | 11.68613 | 39178 ft | 495 kts | 114° |
| 2026-05-04 10:21 | 41.90172 | 11.77115 | 39201 ft | 494 kts | 114° |
| 2026-05-04 10:22 | 41.86136 | 11.89838 | 39231 ft | 494 kts | 114° |
| 2026-05-04 10:23 | 41.83439 | 11.98307 | 39243 ft | 494 kts | 114° |
| 2026-05-04 10:25 | 41.72592 | 12.32104 | 39181 ft | 494 kts | 114° |
| 2026-05-04 10:25 | 41.69859 | 12.40555 | 39181 ft | 495 kts | 114° |
| 2026-05-04 10:26 | 41.67119 | 12.49002 | 39194 ft | 494 kts | 114° |
| 2026-05-04 10:26 | 41.64380 | 12.57420 | 39178 ft | 493 kts | 114° |
| 2026-05-04 10:27 | 41.61638 | 12.65818 | 39179 ft | 493 kts | 114° |
| 2026-05-04 10:27 | 41.58889 | 12.74214 | 39195 ft | 493 kts | 114° |
| 2026-05-04 10:28 | 41.56136 | 12.82597 | 39178 ft | 492 kts | 114° |
| 2026-05-04 10:28 | 41.53384 | 12.90948 | 39179 ft | 491 kts | 114° |
| 2026-05-04 10:29 | 41.50650 | 12.99222 | 39191 ft | 491 kts | 114° |
| 2026-05-04 10:29 | 41.47890 | 13.07547 | 39187 ft | 491 kts | 114° |
| 2026-05-04 10:30 | 41.45125 | 13.15862 | 39195 ft | 491 kts | 114° |
| 2026-05-04 10:30 | 41.42361 | 13.24147 | 39203 ft | 488 kts | 114° |
| 2026-05-04 10:31 | 41.39593 | 13.32424 | 39178 ft | 490 kts | 114° |
| 2026-05-04 10:32 | 41.29833 | 13.61404 | 39189 ft | 488 kts | 115° |
| 2026-05-04 10:33 | 41.27045 | 13.69628 | 39194 ft | 488 kts | 115° |
| 2026-05-04 10:33 | 41.24248 | 13.77852 | 39194 ft | 488 kts | 115° |
| 2026-05-04 10:34 | 41.21448 | 13.86063 | 39200 ft | 488 kts | 115° |
| 2026-05-04 10:34 | 41.18643 | 13.94265 | 39197 ft | 487 kts | 115° |
| 2026-05-04 10:35 | 41.15841 | 14.02433 | 39200 ft | 487 kts | 115° |
| 2026-05-04 10:35 | 41.13032 | 14.10596 | 39211 ft | 486 kts | 115° |
| 2026-05-04 10:36 | 41.10218 | 14.18751 | 39202 ft | 487 kts | 115° |
| 2026-05-04 10:36 | 41.07387 | 14.26928 | 39204 ft | 488 kts | 115° |
| 2026-05-04 10:37 | 41.04571 | 14.35042 | 39198 ft | 487 kts | 115° |
| 2026-05-04 10:37 | 41.01733 | 14.43196 | 39183 ft | 487 kts | 115° |
| 2026-05-04 10:39 | 40.92215 | 14.70365 | 39182 ft | 488 kts | 115° |
| 2026-05-04 10:40 | 40.89350 | 14.78493 | 39188 ft | 488 kts | 115° |
| 2026-05-04 10:40 | 40.86480 | 14.86615 | 39189 ft | 488 kts | 115° |
| 2026-05-04 10:41 | 40.83604 | 14.94729 | 39192 ft | 488 kts | 115° |
| 2026-05-04 10:41 | 40.80734 | 15.02808 | 39193 ft | 491 kts | 115° |
| 2026-05-04 10:42 | 40.77824 | 15.10973 | 39171 ft | 492 kts | 115° |
| 2026-05-04 10:42 | 40.74905 | 15.19140 | 39195 ft | 493 kts | 114° |
| 2026-05-04 10:43 | 40.71965 | 15.27342 | 39186 ft | 495 kts | 115° |
| 2026-05-04 10:45 | 40.60186 | 15.59972 | 39180 ft | 493 kts | 115° |
| 2026-05-04 10:45 | 40.57229 | 15.68107 | 39166 ft | 493 kts | 115° |
| 2026-05-04 10:46 | 40.54271 | 15.76220 | 39181 ft | 491 kts | 115° |
| 2026-05-04 10:46 | 40.51319 | 15.84297 | 39155 ft | 491 kts | 115° |
| 2026-05-04 10:47 | 40.48354 | 15.92384 | 39180 ft | 491 kts | 115° |
| 2026-05-04 10:47 | 40.45380 | 16.00470 | 39162 ft | 491 kts | 115° |
| 2026-05-04 10:49 | 40.33458 | 16.32671 | 39194 ft | 491 kts | 115° |
| 2026-05-04 10:50 | 40.30464 | 16.40702 | 39219 ft | 491 kts | 115° |
| 2026-05-04 10:52 | 40.18424 | 16.72776 | 39213 ft | 491 kts | 115° |
| 2026-05-04 10:52 | 40.15407 | 16.80759 | 39191 ft | 490 kts | 115° |
| 2026-05-04 10:54 | 40.03277 | 17.12640 | 39162 ft | 490 kts | 115° |
| 2026-05-04 10:56 | 39.91075 | 17.44370 | 39170 ft | 489 kts | 115° |
| 2026-05-04 10:57 | 39.88008 | 17.52291 | 39170 ft | 489 kts | 115° |
| 2026-05-04 10:57 | 39.84938 | 17.60200 | 39170 ft | 489 kts | 115° |
| 2026-05-04 10:58 | 39.81863 | 17.68102 | 39167 ft | 489 kts | 115° |
| 2026-05-04 10:58 | 39.78804 | 17.75941 | 39181 ft | 489 kts | 115° |
| 2026-05-04 10:59 | 39.75720 | 17.83824 | 39172 ft | 490 kts | 115° |
| 2026-05-04 10:59 | 39.72626 | 17.91714 | 39167 ft | 490 kts | 115° |
| 2026-05-04 11:00 | 39.69525 | 17.99601 | 39168 ft | 491 kts | 115° |
| 2026-05-04 11:02 | 39.57043 | 18.31134 | 39167 ft | 491 kts | 115° |
| 2026-05-04 11:05 | 39.33150 | 18.89859 | 39166 ft | 492 kts | 116° |
| 2026-05-04 11:06 | 39.29906 | 18.97646 | 39168 ft | 493 kts | 116° |
| 2026-05-04 11:06 | 39.26673 | 19.05387 | 39167 ft | 493 kts | 116° |
| 2026-05-04 11:10 | 39.03785 | 19.59654 | 39164 ft | 492 kts | 116° |
| 2026-05-04 11:12 | 38.90594 | 19.90506 | 39169 ft | 493 kts | 115° |
| 2026-05-04 11:12 | 38.87276 | 19.98217 | 39171 ft | 493 kts | 116° |
| 2026-05-04 11:13 | 38.83958 | 20.05911 | 39170 ft | 493 kts | 116° |
| 2026-05-04 11:13 | 38.80634 | 20.13598 | 39177 ft | 493 kts | 116° |
| 2026-05-04 11:14 | 38.77321 | 20.21243 | 39175 ft | 493 kts | 115° |
| 2026-05-04 11:16 | 38.63937 | 20.51939 | 39179 ft | 493 kts | 115° |
| 2026-05-04 11:16 | 38.60580 | 20.59590 | 39174 ft | 494 kts | 116° |
| 2026-05-04 11:17 | 38.57213 | 20.67247 | 39175 ft | 494 kts | 116° |
| 2026-05-04 11:19 | 38.43683 | 20.97828 | 39173 ft | 495 kts | 116° |
| 2026-05-04 11:19 | 38.40285 | 21.05463 | 39173 ft | 495 kts | 116° |
| 2026-05-04 11:20 | 38.36881 | 21.13093 | 39175 ft | 495 kts | 116° |
| 2026-05-04 11:20 | 38.33471 | 21.20718 | 39175 ft | 495 kts | 116° |
| 2026-05-04 11:22 | 38.19774 | 21.51163 | 39184 ft | 496 kts | 116° |
| 2026-05-04 11:23 | 38.16333 | 21.58771 | 38560 ft | 505 kts | 116° |
| 2026-05-04 11:24 | 38.05581 | 21.82411 | 34328 ft | 517 kts | 116° |
| 2026-05-04 11:25 | 38.03769 | 21.86381 | 33507 ft | 521 kts | 116° |
| 2026-05-04 11:25 | 38.01949 | 21.90361 | 32737 ft | 523 kts | 116° |
| 2026-05-04 11:25 | 38.00120 | 21.94354 | 31963 ft | 525 kts | 116° |
| 2026-05-04 11:26 | 37.96439 | 22.02374 | 30650 ft | 525 kts | 116° |
| 2026-05-04 11:27 | 37.84530 | 22.28196 | 26926 ft | 492 kts | 116° |
| 2026-05-04 11:28 | 37.82825 | 22.31877 | 26358 ft | 489 kts | 116° |
| 2026-05-04 11:28 | 37.81111 | 22.35575 | 25818 ft | 485 kts | 116° |
| 2026-05-04 11:28 | 37.79569 | 22.39334 | 24984 ft | 481 kts | 107° |
| 2026-05-04 11:28 | 37.78611 | 22.43342 | 24068 ft | 469 kts | 93° |
| 2026-05-04 11:29 | 37.78257 | 22.47375 | 22988 ft | 456 kts | 86° |
| 2026-05-04 11:29 | 37.78102 | 22.51341 | 21856 ft | 448 kts | 84° |
| 2026-05-04 11:29 | 37.77987 | 22.55225 | 20714 ft | 438 kts | 84° |
| 2026-05-04 11:29 | 37.77879 | 22.59034 | 19561 ft | 428 kts | 84° |
| 2026-05-04 11:31 | 37.77172 | 22.83149 | 13886 ft | 359 kts | 87° |
| 2026-05-04 11:33 | 37.76512 | 23.04413 | 10951 ft | 330 kts | 89° |
| 2026-05-04 11:33 | 37.76419 | 23.07247 | 10840 ft | 315 kts | 89° |
| 2026-05-04 11:33 | 37.76329 | 23.09956 | 10741 ft | 303 kts | 89° |
| 2026-05-04 11:34 | 37.76242 | 23.12572 | 10620 ft | 293 kts | 88° |
| 2026-05-04 11:34 | 37.76158 | 23.15113 | 10461 ft | 286 kts | 88° |
| 2026-05-04 11:34 | 37.76075 | 23.17623 | 10147 ft | 286 kts | 88° |
| 2026-05-04 11:34 | 37.75993 | 23.20127 | 9826 ft | 284 kts | 88° |
| 2026-05-04 11:35 | 37.75911 | 23.22608 | 9556 ft | 281 kts | 88° |
| 2026-05-04 11:35 | 37.75828 | 23.25066 | 9275 ft | 279 kts | 88° |
| 2026-05-04 11:35 | 37.75745 | 23.27501 | 8986 ft | 277 kts | 89° |
| 2026-05-04 11:35 | 37.75663 | 23.29924 | 8719 ft | 274 kts | 89° |
| 2026-05-04 11:36 | 37.75580 | 23.32323 | 8437 ft | 273 kts | 89° |
| 2026-05-04 11:36 | 37.75498 | 23.34709 | 8149 ft | 271 kts | 89° |
| 2026-05-04 11:36 | 37.75415 | 23.37091 | 7860 ft | 271 kts | 89° |
| 2026-05-04 11:36 | 37.75332 | 23.39463 | 7578 ft | 270 kts | 89° |
| 2026-05-04 11:37 | 37.75248 | 23.41836 | 7280 ft | 270 kts | 89° |
| 2026-05-04 11:37 | 37.75164 | 23.44202 | 6984 ft | 270 kts | 89° |
| 2026-05-04 11:37 | 37.75079 | 23.46562 | 6682 ft | 268 kts | 89° |
| 2026-05-04 11:37 | 37.74994 | 23.48915 | 6368 ft | 267 kts | 89° |
| 2026-05-04 11:38 | 37.74908 | 23.51250 | 6045 ft | 265 kts | 89° |
| 2026-05-04 11:38 | 37.74824 | 23.53574 | 5736 ft | 264 kts | 89° |
| 2026-05-04 11:38 | 37.74741 | 23.55879 | 5422 ft | 261 kts | 89° |
| 2026-05-04 11:38 | 37.74657 | 23.58169 | 5100 ft | 261 kts | 89° |
| 2026-05-04 11:39 | 37.74573 | 23.60426 | 4937 ft | 253 kts | 89° |
| 2026-05-04 11:39 | 37.74491 | 23.62588 | 4804 ft | 238 kts | 89° |
| 2026-05-04 11:40 | 37.75889 | 23.72738 | 3577 ft | 171 kts | 59° |
| 2026-05-04 11:41 | 37.76423 | 23.74074 | 3376 ft | 170 kts | 58° |
| 2026-05-04 11:41 | 37.76962 | 23.75402 | 3184 ft | 170 kts | 59° |
| 2026-05-04 11:41 | 37.77509 | 23.76738 | 2999 ft | 171 kts | 57° |
| 2026-05-04 11:41 | 37.78116 | 23.78001 | 2976 ft | 161 kts | 51° |
| 2026-05-04 11:42 | 37.78805 | 23.79056 | 2972 ft | 152 kts | 41° |
| 2026-05-04 11:42 | 37.79600 | 23.79921 | 2975 ft | 150 kts | 33° |
| 2026-05-04 11:42 | 37.80428 | 23.80725 | 2975 ft | 150 kts | 33° |
| 2026-05-04 11:42 | 37.81260 | 23.81513 | 2973 ft | 150 kts | 33° |
| 2026-05-04 11:43 | 37.82088 | 23.82309 | 2858 ft | 149 kts | 33° |
| 2026-05-04 11:43 | 37.82894 | 23.83089 | 2648 ft | 142 kts | 33° |
| 2026-05-04 11:43 | 37.83647 | 23.83806 | 2466 ft | 133 kts | 31° |
| 2026-05-04 11:43 | 37.84377 | 23.84498 | 2278 ft | 127 kts | 34° |
| 2026-05-04 11:44 | 37.85077 | 23.85162 | 2120 ft | 128 kts | 33° |
| 2026-05-04 11:44 | 37.85783 | 23.85833 | 1932 ft | 127 kts | 32° |
| 2026-05-04 11:44 | 37.86494 | 23.86507 | 1775 ft | 129 kts | 33° |
| 2026-05-04 11:44 | 37.87217 | 23.87196 | 1597 ft | 127 kts | 32° |
| 2026-05-04 11:45 | 37.87909 | 23.87854 | 1417 ft | 126 kts | 33° |
| 2026-05-04 11:45 | 37.88619 | 23.88530 | 1241 ft | 128 kts | 32° |
| 2026-05-04 11:45 | 37.89330 | 23.89206 | 1069 ft | 127 kts | 34° |
| 2026-05-04 11:45 | 37.90034 | 23.89876 | 890 ft | 125 kts | 37° |
| 2026-05-04 11:46 | 37.90720 | 23.90529 | 729 ft | 123 kts | 40° |
| 2026-05-04 11:46 | 37.91397 | 23.91175 | 560 ft | 121 kts | 41° |
| 2026-05-04 11:46 | 37.92077 | 23.91822 | 404 ft | 123 kts | 40° |
| 2026-05-04 11:46 | 37.92744 | 23.92457 | 308 ft | 111 kts | 37° |
| 2026-05-04 11:47 | 37.93220 | 23.92910 | 298 ft | 57 kts | 37° |
| 2026-05-04 11:47 | 37.93480 | 23.93163 | 298 ft | 31 kts | 41° |
| 2026-05-04 11:47 | 37.93596 | 23.93359 | 300 ft | 19 kts | 64° |
| 2026-05-04 11:47 | 37.93634 | 23.93468 | 303 ft | 8 kts | 66° |
| 2026-05-04 11:48 | 37.93642 | 23.93491 | 304 ft | 1 kts | 66° |
| 2026-05-04 11:48 | 37.93645 | 23.93500 | 302 ft | 1 kts | 66° |
| 2026-05-04 11:48 | 37.93646 | 23.93501 | 302 ft | 0 kts | 66° |
| 2026-05-04 11:49 | 37.93648 | 23.93508 | 302 ft | 4 kts | 66° |
| 2026-05-04 11:49 | 37.93665 | 23.93564 | 303 ft | 8 kts | 74° |
| 2026-05-04 11:49 | 37.93667 | 23.93630 | 303 ft | 7 kts | 99° |
| 2026-05-04 11:49 | 37.93646 | 23.93682 | 306 ft | 5 kts | 131° |
| 2026-05-04 11:50 | 37.93615 | 23.93691 | 304 ft | 5 kts | 189° |
| 2026-05-04 11:50 | 37.93570 | 23.93662 | 308 ft | 10 kts | 214° |
| 2026-05-04 11:50 | 37.93511 | 23.93608 | 308 ft | 10 kts | 216° |
| 2026-05-04 11:50 | 37.93449 | 23.93549 | 307 ft | 9 kts | 217° |
| 2026-05-04 11:51 | 37.93398 | 23.93525 | 308 ft | 8 kts | 176° |
| 2026-05-04 11:51 | 37.93354 | 23.93569 | 308 ft | 9 kts | 128° |
| 2026-05-04 11:51 | 37.93314 | 23.93635 | 308 ft | 10 kts | 127° |
| 2026-05-04 11:51 | 37.93267 | 23.93714 | 309 ft | 12 kts | 127° |
| 2026-05-04 11:52 | 37.93214 | 23.93804 | 308 ft | 14 kts | 127° |
| 2026-05-04 11:52 | 37.93153 | 23.93905 | 308 ft | 15 kts | 127° |
| 2026-05-04 11:52 | 37.93093 | 23.94004 | 308 ft | 13 kts | 127° |
| 2026-05-04 11:52 | 37.93036 | 23.94100 | 309 ft | 14 kts | 127° |
| 2026-05-04 11:53 | 37.92980 | 23.94193 | 309 ft | 12 kts | 127° |
| 2026-05-04 11:53 | 37.92942 | 23.94256 | 309 ft | 4 kts | 127° |
| 2026-05-04 11:53 | 37.92929 | 23.94277 | 308 ft | 0 kts | 127° |
| 2026-05-04 11:55 | 37.92999 | 23.94519 | 308 ft | 9 kts | 36° |
| 2026-05-04 11:55 | 37.93056 | 23.94569 | 309 ft | 11 kts | 29° |
| 2026-05-04 11:56 | 37.93114 | 23.94589 | 307 ft | 8 kts | 6° |
| 2026-05-04 11:56 | 37.93170 | 23.94594 | 309 ft | 4 kts | 3° |
| 2026-05-04 11:56 | 37.93208 | 23.94600 | 305 ft | 7 kts | 14° |
| 2026-05-04 11:56 | 37.93254 | 23.94631 | 309 ft | 7 kts | 33° |
| 2026-05-04 11:57 | 37.93279 | 23.94643 | 308 ft | 3 kts | 3° |
| 2026-05-04 11:57 | 37.93298 | 23.94630 | 309 ft | 4 kts | 320° |
| 2026-05-04 11:57 | 37.93306 | 23.94617 | 307 ft | 2 kts | 306° |
| 2026-05-04 11:57 | 37.93315 | 23.94600 | 307 ft | 2 kts | 306° |
| 2026-05-04 11:58 | 37.93323 | 23.94586 | 309 ft | 2 kts | 306° |
| 2026-05-04 11:58 | 37.93329 | 23.94577 | 308 ft | 1 kts | 306° |
| 2026-05-04 11:58 | 37.93331 | 23.94572 | 308 ft | 0 kts | 306° |